sensor_id;sensor_type;location;lat;lon;timestamp;temperature;humidity
20654;DHT22;21083;50.898;4.902;2023-05-20T00:01:47;15.40;99.90
20654;DHT22;21083;50.898;4.902;2023-05-20T00:04:14;15.40;99.90
20654;DHT22;21083;50.898;4.902;2023-05-20T00:06:41;15.50;99.90
20654;DHT22;21083;50.898;4.902;2023-05-20T00:09:08;15.40;99.90
20654;DHT22;21083;50.898;4.902;2023-05-20T00:11:36;15.40;99.90
20654;DHT22;21083;50.898;4.902;2023-05-20T00:14:03;15.30;99.90
20654;DHT22;21083;50.898;4.902;2023-05-20T00:16:30;15.30;99.90
20654;DHT22;21083;50.898;4.902;2023-05-20T00:18:57;15.30;99.90
20654;DHT22;21083;50.898;4.902;2023-05-20T00:21:24;15.30;99.90
20654;DHT22;21083;50.898;4.902;2023-05-20T00:23:51;15.30;99.90
20654;DHT22;21083;50.898;4.902;2023-05-20T00:26:19;15.30;99.90
20654;DHT22;21083;50.898;4.902;2023-05-20T00:28:47;15.30;99.90
20654;DHT22;21083;50.898;4.902;2023-05-20T00:31:14;15.30;99.90
20654;DHT22;21083;50.898;4.902;2023-05-20T00:33:41;15.30;99.90
20654;DHT22;21083;50.898;4.902;2023-05-20T00:36:08;15.30;99.90
20654;DHT22;21083;50.898;4.902;2023-05-20T00:38:35;15.30;99.90
20654;DHT22;21083;50.898;4.902;2023-05-20T00:41:02;15.30;99.90
20654;DHT22;21083;50.898;4.902;2023-05-20T00:43:29;15.20;99.90
20654;DHT22;21083;50.898;4.902;2023-05-20T00:45:57;15.10;99.90
20654;DHT22;21083;50.898;4.902;2023-05-20T00:48:24;15.10;99.90
20654;DHT22;21083;50.898;4.902;2023-05-20T00:50:51;15.00;99.90
20654;DHT22;21083;50.898;4.902;2023-05-20T00:53:19;15.00;99.90
20654;DHT22;21083;50.898;4.902;2023-05-20T00:55:47;14.90;99.90
20654;DHT22;21083;50.898;4.902;2023-05-20T00:58:14;14.80;99.90
20654;DHT22;21083;50.898;4.902;2023-05-20T01:00:41;14.80;99.90
20654;DHT22;21083;50.898;4.902;2023-05-20T01:03:10;14.80;99.90
20654;DHT22;21083;50.898;4.902;2023-05-20T01:05:37;14.80;99.90
20654;DHT22;21083;50.898;4.902;2023-05-20T01:08:04;14.70;99.90
20654;DHT22;21083;50.898;4.902;2023-05-20T01:10:32;14.60;99.90
20654;DHT22;21083;50.898;4.902;2023-05-20T01:13:04;14.50;99.90
20654;DHT22;21083;50.898;4.902;2023-05-20T01:15:32;14.50;99.90
20654;DHT22;21083;50.898;4.902;2023-05-20T01:18:00;14.40;99.90
20654;DHT22;21083;50.898;4.902;2023-05-20T01:20:32;14.30;99.90
20654;DHT22;21083;50.898;4.902;2023-05-20T01:23:00;14.30;99.90
20654;DHT22;21083;50.898;4.902;2023-05-20T01:25:28;14.30;99.90
20654;DHT22;21083;50.898;4.902;2023-05-20T01:27:55;14.30;99.90
20654;DHT22;21083;50.898;4.902;2023-05-20T01:30:27;14.20;99.90
20654;DHT22;21083;50.898;4.902;2023-05-20T01:32:58;14.20;99.90
20654;DHT22;21083;50.898;4.902;2023-05-20T01:35:27;14.20;99.90
20654;DHT22;21083;50.898;4.902;2023-05-20T01:37:56;14.20;99.90
20654;DHT22;21083;50.898;4.902;2023-05-20T01:40:27;14.20;99.90
20654;DHT22;21083;50.898;4.902;2023-05-20T01:42:54;14.30;99.90
20654;DHT22;21083;50.898;4.902;2023-05-20T01:45:23;14.30;99.90
20654;DHT22;21083;50.898;4.902;2023-05-20T01:47:50;14.30;99.90
20654;DHT22;21083;50.898;4.902;2023-05-20T01:50:17;14.30;99.90
20654;DHT22;21083;50.898;4.902;2023-05-20T01:52:44;14.30;99.90
20654;DHT22;21083;50.898;4.902;2023-05-20T01:55:11;14.30;99.90
20654;DHT22;21083;50.898;4.902;2023-05-20T01:57:40;14.30;99.90
20654;DHT22;21083;50.898;4.902;2023-05-20T02:00:08;14.30;99.90
20654;DHT22;21083;50.898;4.902;2023-05-20T02:02:35;14.20;99.90
20654;DHT22;21083;50.898;4.902;2023-05-20T02:05:02;14.20;99.90
20654;DHT22;21083;50.898;4.902;2023-05-20T02:07:29;14.10;99.90
20654;DHT22;21083;50.898;4.902;2023-05-20T02:09:56;14.00;99.90
20654;DHT22;21083;50.898;4.902;2023-05-20T02:12:23;14.00;99.90
20654;DHT22;21083;50.898;4.902;2023-05-20T02:14:52;13.90;99.90
20654;DHT22;21083;50.898;4.902;2023-05-20T02:17:19;13.90;99.90
20654;DHT22;21083;50.898;4.902;2023-05-20T02:19:46;13.90;99.90
20654;DHT22;21083;50.898;4.902;2023-05-20T02:22:14;13.90;99.90
20654;DHT22;21083;50.898;4.902;2023-05-20T02:24:41;13.80;99.90
20654;DHT22;21083;50.898;4.902;2023-05-20T02:27:08;13.80;99.90
20654;DHT22;21083;50.898;4.902;2023-05-20T02:29:35;13.70;99.90
20654;DHT22;21083;50.898;4.902;2023-05-20T02:32:04;13.60;99.90
20654;DHT22;21083;50.898;4.902;2023-05-20T02:34:32;13.50;99.90
20654;DHT22;21083;50.898;4.902;2023-05-20T02:36:58;13.50;99.90
20654;DHT22;21083;50.898;4.902;2023-05-20T02:39:26;13.50;99.90
20654;DHT22;21083;50.898;4.902;2023-05-20T02:41:54;13.40;99.90
20654;DHT22;21083;50.898;4.902;2023-05-20T02:44:21;13.50;99.90
20654;DHT22;21083;50.898;4.902;2023-05-20T02:46:47;13.40;99.90
20654;DHT22;21083;50.898;4.902;2023-05-20T02:49:16;13.40;99.90
20654;DHT22;21083;50.898;4.902;2023-05-20T02:51:43;13.40;99.90
20654;DHT22;21083;50.898;4.902;2023-05-20T02:54:10;13.40;99.90
20654;DHT22;21083;50.898;4.902;2023-05-20T02:56:37;13.40;99.90
20654;DHT22;21083;50.898;4.902;2023-05-20T02:59:04;13.40;99.90
20654;DHT22;21083;50.898;4.902;2023-05-20T03:01:32;13.30;99.90
20654;DHT22;21083;50.898;4.902;2023-05-20T03:04:00;13.30;99.90
20654;DHT22;21083;50.898;4.902;2023-05-20T03:06:29;13.20;99.90
20654;DHT22;21083;50.898;4.902;2023-05-20T03:08:56;13.20;99.90
20654;DHT22;21083;50.898;4.902;2023-05-20T03:11:23;13.10;99.90
20654;DHT22;21083;50.898;4.902;2023-05-20T03:13:51;13.10;99.90
20654;DHT22;21083;50.898;4.902;2023-05-20T03:16:18;13.10;99.90
20654;DHT22;21083;50.898;4.902;2023-05-20T03:18:45;13.10;99.90
20654;DHT22;21083;50.898;4.902;2023-05-20T03:21:12;13.20;99.90
20654;DHT22;21083;50.898;4.902;2023-05-20T03:23:40;13.20;99.90
20654;DHT22;21083;50.898;4.902;2023-05-20T03:26:07;13.10;99.90
20654;DHT22;21083;50.898;4.902;2023-05-20T03:28:35;13.10;99.90
20654;DHT22;21083;50.898;4.902;2023-05-20T03:31:02;13.10;99.90
20654;DHT22;21083;50.898;4.902;2023-05-20T03:33:29;13.10;99.90
20654;DHT22;21083;50.898;4.902;2023-05-20T03:35:58;13.10;99.90
20654;DHT22;21083;50.898;4.902;2023-05-20T03:38:25;13.00;99.90
20654;DHT22;21083;50.898;4.902;2023-05-20T03:40:54;13.00;99.90
20654;DHT22;21083;50.898;4.902;2023-05-20T03:43:21;12.90;99.90
20654;DHT22;21083;50.898;4.902;2023-05-20T03:45:48;12.90;99.90
20654;DHT22;21083;50.898;4.902;2023-05-20T03:48:15;12.90;99.90
20654;DHT22;21083;50.898;4.902;2023-05-20T03:50:42;12.90;99.90
20654;DHT22;21083;50.898;4.902;2023-05-20T03:53:09;12.90;99.90
20654;DHT22;21083;50.898;4.902;2023-05-20T03:55:36;12.90;99.90
20654;DHT22;21083;50.898;4.902;2023-05-20T03:58:04;12.90;99.90
20654;DHT22;21083;50.898;4.902;2023-05-20T04:00:31;12.80;99.90
20654;DHT22;21083;50.898;4.902;2023-05-20T04:02:58;12.80;99.90
20654;DHT22;21083;50.898;4.902;2023-05-20T04:05:25;12.80;99.90
20654;DHT22;21083;50.898;4.902;2023-05-20T04:07:52;12.80;99.90
20654;DHT22;21083;50.898;4.902;2023-05-20T04:10:19;12.80;99.90
20654;DHT22;21083;50.898;4.902;2023-05-20T04:12:47;12.90;99.90
20654;DHT22;21083;50.898;4.902;2023-05-20T04:15:16;12.90;99.90
20654;DHT22;21083;50.898;4.902;2023-05-20T04:17:44;12.90;99.90
20654;DHT22;21083;50.898;4.902;2023-05-20T04:20:13;12.90;99.90
20654;DHT22;21083;50.898;4.902;2023-05-20T04:22:40;13.00;99.90
20654;DHT22;21083;50.898;4.902;2023-05-20T04:25:07;13.00;99.90
20654;DHT22;21083;50.898;4.902;2023-05-20T04:27:34;13.10;99.90
20654;DHT22;21083;50.898;4.902;2023-05-20T04:30:02;13.20;99.90
20654;DHT22;21083;50.898;4.902;2023-05-20T04:32:31;13.10;99.90
20654;DHT22;21083;50.898;4.902;2023-05-20T04:34:59;13.10;99.90
20654;DHT22;21083;50.898;4.902;2023-05-20T04:37:26;13.10;99.90
20654;DHT22;21083;50.898;4.902;2023-05-20T04:39:53;13.10;99.90
20654;DHT22;21083;50.898;4.902;2023-05-20T04:42:20;13.10;99.90
20654;DHT22;21083;50.898;4.902;2023-05-20T04:44:47;13.20;99.90
20654;DHT22;21083;50.898;4.902;2023-05-20T04:47:14;13.20;99.90
20654;DHT22;21083;50.898;4.902;2023-05-20T04:49:43;13.20;99.90
20654;DHT22;21083;50.898;4.902;2023-05-20T04:52:10;13.20;99.90
20654;DHT22;21083;50.898;4.902;2023-05-20T04:54:37;13.20;99.90
20654;DHT22;21083;50.898;4.902;2023-05-20T04:57:04;13.20;99.90
20654;DHT22;21083;50.898;4.902;2023-05-20T04:59:32;13.30;99.90
20654;DHT22;21083;50.898;4.902;2023-05-20T05:01:59;13.30;99.90
20654;DHT22;21083;50.898;4.902;2023-05-20T05:04:25;13.30;99.90
20654;DHT22;21083;50.898;4.902;2023-05-20T05:06:54;13.30;99.90
20654;DHT22;21083;50.898;4.902;2023-05-20T05:09:21;13.30;99.90
20654;DHT22;21083;50.898;4.902;2023-05-20T05:11:48;13.30;99.90
20654;DHT22;21083;50.898;4.902;2023-05-20T05:14:15;13.40;99.90
20654;DHT22;21083;50.898;4.902;2023-05-20T05:16:42;13.40;99.90
20654;DHT22;21083;50.898;4.902;2023-05-20T05:19:09;13.50;99.90
20654;DHT22;21083;50.898;4.902;2023-05-20T05:21:38;13.50;99.90
20654;DHT22;21083;50.898;4.902;2023-05-20T05:24:06;13.50;99.90
20654;DHT22;21083;50.898;4.902;2023-05-20T05:26:33;13.50;99.90
20654;DHT22;21083;50.898;4.902;2023-05-20T05:29:00;13.50;99.90
20654;DHT22;21083;50.898;4.902;2023-05-20T05:31:27;13.50;99.90
20654;DHT22;21083;50.898;4.902;2023-05-20T05:33:54;13.50;99.90
20654;DHT22;21083;50.898;4.902;2023-05-20T05:36:23;13.50;99.90
20654;DHT22;21083;50.898;4.902;2023-05-20T05:38:50;13.70;99.90
20654;DHT22;21083;50.898;4.902;2023-05-20T05:41:18;13.60;99.90
20654;DHT22;21083;50.898;4.902;2023-05-20T05:43:45;13.60;99.90
20654;DHT22;21083;50.898;4.902;2023-05-20T05:46:12;13.60;99.90
20654;DHT22;21083;50.898;4.902;2023-05-20T05:48:40;13.80;99.90
20654;DHT22;21083;50.898;4.902;2023-05-20T05:51:07;13.90;99.90
20654;DHT22;21083;50.898;4.902;2023-05-20T05:53:34;13.80;99.90
20654;DHT22;21083;50.898;4.902;2023-05-20T05:56:01;13.90;99.90
20654;DHT22;21083;50.898;4.902;2023-05-20T05:58:30;14.00;99.90
20654;DHT22;21083;50.898;4.902;2023-05-20T06:00:57;14.10;99.90
20654;DHT22;21083;50.898;4.902;2023-05-20T06:03:24;14.10;99.90
20654;DHT22;21083;50.898;4.902;2023-05-20T06:05:51;14.20;99.90
20654;DHT22;21083;50.898;4.902;2023-05-20T06:08:18;14.20;99.90
20654;DHT22;21083;50.898;4.902;2023-05-20T06:10:47;14.20;99.90
20654;DHT22;21083;50.898;4.902;2023-05-20T06:13:14;14.30;99.90
20654;DHT22;21083;50.898;4.902;2023-05-20T06:15:43;14.30;99.90
20654;DHT22;21083;50.898;4.902;2023-05-20T06:18:11;14.40;99.90
20654;DHT22;21083;50.898;4.902;2023-05-20T06:20:38;14.50;99.90
20654;DHT22;21083;50.898;4.902;2023-05-20T06:23:05;14.70;99.90
20654;DHT22;21083;50.898;4.902;2023-05-20T06:25:32;14.70;99.90
20654;DHT22;21083;50.898;4.902;2023-05-20T06:27:59;14.80;99.90
20654;DHT22;21083;50.898;4.902;2023-05-20T06:30:26;15.00;99.90
20654;DHT22;21083;50.898;4.902;2023-05-20T06:32:54;15.10;99.90
20654;DHT22;21083;50.898;4.902;2023-05-20T06:35:21;15.20;99.90
20654;DHT22;21083;50.898;4.902;2023-05-20T06:37:48;15.30;99.90
20654;DHT22;21083;50.898;4.902;2023-05-20T06:40:15;15.40;99.90
20654;DHT22;21083;50.898;4.902;2023-05-20T06:42:42;15.50;99.90
20654;DHT22;21083;50.898;4.902;2023-05-20T06:45:10;15.70;99.90
20654;DHT22;21083;50.898;4.902;2023-05-20T06:47:38;15.90;99.90
20654;DHT22;21083;50.898;4.902;2023-05-20T06:50:07;15.90;99.90
20654;DHT22;21083;50.898;4.902;2023-05-20T06:52:34;15.90;99.90
20654;DHT22;21083;50.898;4.902;2023-05-20T06:55:02;16.00;99.90
20654;DHT22;21083;50.898;4.902;2023-05-20T06:57:29;16.20;99.90
20654;DHT22;21083;50.898;4.902;2023-05-20T06:59:56;16.10;99.90
20654;DHT22;21083;50.898;4.902;2023-05-20T07:02:23;16.20;99.90
20654;DHT22;21083;50.898;4.902;2023-05-20T07:04:50;16.30;99.90
20654;DHT22;21083;50.898;4.902;2023-05-20T07:07:19;16.40;99.90
20654;DHT22;21083;50.898;4.902;2023-05-20T07:09:46;16.50;99.90
20654;DHT22;21083;50.898;4.902;2023-05-20T07:12:13;16.70;99.90
20654;DHT22;21083;50.898;4.902;2023-05-20T07:14:41;16.70;99.90
20654;DHT22;21083;50.898;4.902;2023-05-20T07:17:09;16.70;99.90
20654;DHT22;21083;50.898;4.902;2023-05-20T07:19:36;16.70;99.90
20654;DHT22;21083;50.898;4.902;2023-05-20T07:22:03;16.90;99.90
20654;DHT22;21083;50.898;4.902;2023-05-20T07:24:32;16.80;99.90
20654;DHT22;21083;50.898;4.902;2023-05-20T07:26:59;16.90;99.90
20654;DHT22;21083;50.898;4.902;2023-05-20T07:29:26;17.00;99.90
20654;DHT22;21083;50.898;4.902;2023-05-20T07:31:53;17.20;99.90
20654;DHT22;21083;50.898;4.902;2023-05-20T07:34:20;17.10;99.90
20654;DHT22;21083;50.898;4.902;2023-05-20T07:36:47;17.20;99.90
20654;DHT22;21083;50.898;4.902;2023-05-20T07:39:15;17.20;99.90
20654;DHT22;21083;50.898;4.902;2023-05-20T07:41:44;17.40;99.90
20654;DHT22;21083;50.898;4.902;2023-05-20T07:44:11;17.60;99.90
20654;DHT22;21083;50.898;4.902;2023-05-20T07:46:38;17.60;99.90
20654;DHT22;21083;50.898;4.902;2023-05-20T07:49:06;17.90;99.90
20654;DHT22;21083;50.898;4.902;2023-05-20T07:51:33;18.00;99.90
20654;DHT22;21083;50.898;4.902;2023-05-20T07:54:00;18.20;99.90
20654;DHT22;21083;50.898;4.902;2023-05-20T07:56:27;18.30;99.90
20654;DHT22;21083;50.898;4.902;2023-05-20T07:58:57;18.30;99.90
20654;DHT22;21083;50.898;4.902;2023-05-20T08:01:25;18.50;99.90
20654;DHT22;21083;50.898;4.902;2023-05-20T08:03:52;18.60;99.90
20654;DHT22;21083;50.898;4.902;2023-05-20T08:06:19;18.70;99.90
20654;DHT22;21083;50.898;4.902;2023-05-20T08:08:47;18.70;99.90
20654;DHT22;21083;50.898;4.902;2023-05-20T08:11:13;18.70;99.90
20654;DHT22;21083;50.898;4.902;2023-05-20T08:13:40;18.80;99.90
20654;DHT22;21083;50.898;4.902;2023-05-20T08:16:09;18.90;99.90
20654;DHT22;21083;50.898;4.902;2023-05-20T08:18:36;18.90;99.90
20654;DHT22;21083;50.898;4.902;2023-05-20T08:21:04;19.00;99.90
20654;DHT22;21083;50.898;4.902;2023-05-20T08:23:32;19.20;99.90
20654;DHT22;21083;50.898;4.902;2023-05-20T08:26:00;19.10;99.90
20654;DHT22;21083;50.898;4.902;2023-05-20T08:28:28;19.20;99.90
20654;DHT22;21083;50.898;4.902;2023-05-20T08:30:55;19.40;99.90
20654;DHT22;21083;50.898;4.902;2023-05-20T08:33:23;19.40;99.90
20654;DHT22;21083;50.898;4.902;2023-05-20T08:35:51;19.30;99.90
20654;DHT22;21083;50.898;4.902;2023-05-20T08:38:18;19.50;99.90
20654;DHT22;21083;50.898;4.902;2023-05-20T08:40:45;19.70;99.90
20654;DHT22;21083;50.898;4.902;2023-05-20T08:43:17;19.70;99.90
20654;DHT22;21083;50.898;4.902;2023-05-20T08:45:44;19.90;99.90
20654;DHT22;21083;50.898;4.902;2023-05-20T08:48:11;19.90;99.90
20654;DHT22;21083;50.898;4.902;2023-05-20T08:50:39;19.80;99.90
20654;DHT22;21083;50.898;4.902;2023-05-20T08:53:07;19.90;99.90
20654;DHT22;21083;50.898;4.902;2023-05-20T08:55:41;19.90;99.90
20654;DHT22;21083;50.898;4.902;2023-05-20T08:58:09;20.00;99.90
20654;DHT22;21083;50.898;4.902;2023-05-20T09:00:36;20.10;99.90
20654;DHT22;21083;50.898;4.902;2023-05-20T09:03:03;20.20;99.90
20654;DHT22;21083;50.898;4.902;2023-05-20T09:05:30;20.40;99.90
20654;DHT22;21083;50.898;4.902;2023-05-20T09:08:05;20.50;99.90
20654;DHT22;21083;50.898;4.902;2023-05-20T09:10:33;20.70;99.90
20654;DHT22;21083;50.898;4.902;2023-05-20T09:13:00;20.80;99.90
20654;DHT22;21083;50.898;4.902;2023-05-20T09:15:29;20.80;99.90
20654;DHT22;21083;50.898;4.902;2023-05-20T09:17:58;20.90;99.90
20654;DHT22;21083;50.898;4.902;2023-05-20T09:20:27;21.20;99.90
20654;DHT22;21083;50.898;4.902;2023-05-20T09:22:58;21.20;99.90
20654;DHT22;21083;50.898;4.902;2023-05-20T09:25:27;21.30;99.90
20654;DHT22;21083;50.898;4.902;2023-05-20T09:27:54;21.40;99.90
20654;DHT22;21083;50.898;4.902;2023-05-20T09:30:22;21.60;99.90
20654;DHT22;21083;50.898;4.902;2023-05-20T09:32:53;21.70;99.90
20654;DHT22;21083;50.898;4.902;2023-05-20T09:35:21;21.80;99.90
20654;DHT22;21083;50.898;4.902;2023-05-20T09:37:51;21.90;99.90
20654;DHT22;21083;50.898;4.902;2023-05-20T09:40:23;22.00;99.90
20654;DHT22;21083;50.898;4.902;2023-05-20T09:42:55;22.00;99.90
20654;DHT22;21083;50.898;4.902;2023-05-20T09:45:23;22.10;99.90
20654;DHT22;21083;50.898;4.902;2023-05-20T09:47:50;22.20;99.90
20654;DHT22;21083;50.898;4.902;2023-05-20T09:50:18;22.20;99.90
20654;DHT22;21083;50.898;4.902;2023-05-20T09:52:47;22.40;99.90
20654;DHT22;21083;50.898;4.902;2023-05-20T09:55:15;22.40;99.90
20654;DHT22;21083;50.898;4.902;2023-05-20T09:57:42;22.50;99.90
20654;DHT22;21083;50.898;4.902;2023-05-20T10:00:12;22.40;99.90
20654;DHT22;21083;50.898;4.902;2023-05-20T10:02:43;22.60;99.90
20654;DHT22;21083;50.898;4.902;2023-05-20T10:05:15;22.80;99.90
20654;DHT22;21083;50.898;4.902;2023-05-20T10:11:04;23.20;99.90
20654;DHT22;21083;50.898;4.902;2023-05-20T10:13:44;23.50;99.90
20654;DHT22;21083;50.898;4.902;2023-05-20T10:16:19;23.60;99.90
20654;DHT22;21083;50.898;4.902;2023-05-20T10:18:55;23.80;99.90
20654;DHT22;21083;50.898;4.902;2023-05-20T10:21:24;23.80;99.90
20654;DHT22;21083;50.898;4.902;2023-05-20T10:23:51;23.90;99.90
20654;DHT22;21083;50.898;4.902;2023-05-20T10:26:18;24.00;99.90
20654;DHT22;21083;50.898;4.902;2023-05-20T10:28:46;24.20;99.90
20654;DHT22;21083;50.898;4.902;2023-05-20T10:31:20;24.30;99.90
20654;DHT22;21083;50.898;4.902;2023-05-20T10:33:50;24.20;99.90
20654;DHT22;21083;50.898;4.902;2023-05-20T10:36:22;24.20;99.90
20654;DHT22;21083;50.898;4.902;2023-05-20T10:38:52;24.00;99.90
20654;DHT22;21083;50.898;4.902;2023-05-20T10:41:20;23.90;99.90
20654;DHT22;21083;50.898;4.902;2023-05-20T10:43:58;24.00;99.90
20654;DHT22;21083;50.898;4.902;2023-05-20T10:46:27;24.00;99.90
20654;DHT22;21083;50.898;4.902;2023-05-20T10:48:54;24.20;99.90
20654;DHT22;21083;50.898;4.902;2023-05-20T10:51:21;24.30;99.90
20654;DHT22;21083;50.898;4.902;2023-05-20T10:53:52;24.50;99.90
20654;DHT22;21083;50.898;4.902;2023-05-20T10:56:21;24.60;99.90
20654;DHT22;21083;50.898;4.902;2023-05-20T10:58:48;24.80;99.90
20654;DHT22;21083;50.898;4.902;2023-05-20T11:01:16;24.90;99.90
20654;DHT22;21083;50.898;4.902;2023-05-20T11:03:45;25.10;99.90
20654;DHT22;21083;50.898;4.902;2023-05-20T11:06:15;25.00;99.90
20654;DHT22;21083;50.898;4.902;2023-05-20T11:08:43;25.10;99.90
20654;DHT22;21083;50.898;4.902;2023-05-20T11:11:10;25.30;99.90
20654;DHT22;21083;50.898;4.902;2023-05-20T11:13:37;25.50;99.90
20654;DHT22;21083;50.898;4.902;2023-05-20T11:16:04;25.70;99.90
20654;DHT22;21083;50.898;4.902;2023-05-20T11:18:32;26.00;99.90
20654;DHT22;21083;50.898;4.902;2023-05-20T11:21:01;25.80;99.90
20654;DHT22;21083;50.898;4.902;2023-05-20T11:23:28;25.80;99.90
20654;DHT22;21083;50.898;4.902;2023-05-20T11:25:56;25.60;99.90
20654;DHT22;21083;50.898;4.902;2023-05-20T11:28:24;25.20;99.90
20654;DHT22;21083;50.898;4.902;2023-05-20T11:30:52;25.30;99.90
20654;DHT22;21083;50.898;4.902;2023-05-20T11:33:19;25.40;99.90
20654;DHT22;21083;50.898;4.902;2023-05-20T11:35:48;25.50;99.90
20654;DHT22;21083;50.898;4.902;2023-05-20T11:38:18;25.70;99.90
20654;DHT22;21083;50.898;4.902;2023-05-20T11:40:46;25.70;99.90
20654;DHT22;21083;50.898;4.902;2023-05-20T11:43:14;25.80;99.90
20654;DHT22;21083;50.898;4.902;2023-05-20T11:45:43;25.80;99.90
20654;DHT22;21083;50.898;4.902;2023-05-20T11:48:11;25.70;99.90
20654;DHT22;21083;50.898;4.902;2023-05-20T11:50:40;25.80;99.90
20654;DHT22;21083;50.898;4.902;2023-05-20T11:53:09;25.60;99.90
20654;DHT22;21083;50.898;4.902;2023-05-20T11:55:46;25.30;99.90
20654;DHT22;21083;50.898;4.902;2023-05-20T11:58:18;25.40;99.90
20654;DHT22;21083;50.898;4.902;2023-05-20T12:00:45;25.50;99.90
20654;DHT22;21083;50.898;4.902;2023-05-20T12:03:12;25.20;99.90
20654;DHT22;21083;50.898;4.902;2023-05-20T12:05:40;25.20;99.90
20654;DHT22;21083;50.898;4.902;2023-05-20T12:08:07;25.40;99.90
20654;DHT22;21083;50.898;4.902;2023-05-20T12:10:34;25.70;99.90
20654;DHT22;21083;50.898;4.902;2023-05-20T12:13:04;25.80;99.90
20654;DHT22;21083;50.898;4.902;2023-05-20T12:15:33;25.80;99.90
20654;DHT22;21083;50.898;4.902;2023-05-20T12:18:01;25.80;99.90
20654;DHT22;21083;50.898;4.902;2023-05-20T12:20:28;26.10;99.90
20654;DHT22;21083;50.898;4.902;2023-05-20T12:22:58;26.40;99.90
20654;DHT22;21083;50.898;4.902;2023-05-20T12:25:25;26.60;99.90
20654;DHT22;21083;50.898;4.902;2023-05-20T12:27:52;26.60;99.90
20654;DHT22;21083;50.898;4.902;2023-05-20T12:30:22;26.90;99.90
20654;DHT22;21083;50.898;4.902;2023-05-20T12:32:49;26.90;99.90
20654;DHT22;21083;50.898;4.902;2023-05-20T12:35:23;26.60;99.90
20654;DHT22;21083;50.898;4.902;2023-05-20T12:37:50;26.70;99.90
20654;DHT22;21083;50.898;4.902;2023-05-20T12:40:17;26.90;99.90
20654;DHT22;21083;50.898;4.902;2023-05-20T12:42:44;27.10;99.90
20654;DHT22;21083;50.898;4.902;2023-05-20T12:45:11;27.10;99.90
20654;DHT22;21083;50.898;4.902;2023-05-20T12:47:39;27.30;99.90
20654;DHT22;21083;50.898;4.902;2023-05-20T12:50:07;27.30;99.90
20654;DHT22;21083;50.898;4.902;2023-05-20T12:52:34;27.10;99.90
20654;DHT22;21083;50.898;4.902;2023-05-20T12:55:00;27.00;99.90
20654;DHT22;21083;50.898;4.902;2023-05-20T12:57:28;27.10;99.90
20654;DHT22;21083;50.898;4.902;2023-05-20T12:59:55;27.40;99.90
20654;DHT22;21083;50.898;4.902;2023-05-20T13:02:22;27.70;99.90
20654;DHT22;21083;50.898;4.902;2023-05-20T13:04:51;27.60;99.90
20654;DHT22;21083;50.898;4.902;2023-05-20T13:07:18;27.40;99.90
20654;DHT22;21083;50.898;4.902;2023-05-20T13:09:45;27.00;99.90
20654;DHT22;21083;50.898;4.902;2023-05-20T13:12:12;26.50;99.90
20654;DHT22;21083;50.898;4.902;2023-05-20T13:14:39;26.20;99.90
20654;DHT22;21083;50.898;4.902;2023-05-20T13:17:06;26.50;99.90
20654;DHT22;21083;50.898;4.902;2023-05-20T13:19:33;26.70;99.90
20654;DHT22;21083;50.898;4.902;2023-05-20T13:22:01;26.90;99.90
20654;DHT22;21083;50.898;4.902;2023-05-20T13:24:30;26.50;99.90
20654;DHT22;21083;50.898;4.902;2023-05-20T13:26:57;26.00;99.90
20654;DHT22;21083;50.898;4.902;2023-05-20T13:29:25;26.10;99.90
20654;DHT22;21083;50.898;4.902;2023-05-20T13:31:52;26.40;99.90
20654;DHT22;21083;50.898;4.902;2023-05-20T13:34:19;26.50;99.90
20654;DHT22;21083;50.898;4.902;2023-05-20T13:36:46;26.70;99.90
20654;DHT22;21083;50.898;4.902;2023-05-20T13:39:15;26.90;99.90
20654;DHT22;21083;50.898;4.902;2023-05-20T13:41:42;26.70;99.90
20654;DHT22;21083;50.898;4.902;2023-05-20T13:44:09;26.40;99.90
20654;DHT22;21083;50.898;4.902;2023-05-20T13:46:36;26.20;99.90
20654;DHT22;21083;50.898;4.902;2023-05-20T13:49:03;25.90;99.90
20654;DHT22;21083;50.898;4.902;2023-05-20T13:51:30;25.80;99.90
20654;DHT22;21083;50.898;4.902;2023-05-20T13:53:57;25.90;99.90
20654;DHT22;21083;50.898;4.902;2023-05-20T13:56:25;25.80;99.90
20654;DHT22;21083;50.898;4.902;2023-05-20T13:58:53;25.60;99.90
20654;DHT22;21083;50.898;4.902;2023-05-20T14:01:20;25.70;99.90
20654;DHT22;21083;50.898;4.902;2023-05-20T14:03:46;25.60;99.90
20654;DHT22;21083;50.898;4.902;2023-05-20T14:06:14;25.20;99.90
20654;DHT22;21083;50.898;4.902;2023-05-20T14:08:43;25.20;99.90
20654;DHT22;21083;50.898;4.902;2023-05-20T14:11:10;25.00;99.90
20654;DHT22;21083;50.898;4.902;2023-05-20T14:13:38;25.00;99.90
20654;DHT22;21083;50.898;4.902;2023-05-20T14:16:06;25.10;99.90
20654;DHT22;21083;50.898;4.902;2023-05-20T14:18:33;25.10;99.90
20654;DHT22;21083;50.898;4.902;2023-05-20T14:21:00;25.20;99.90
20654;DHT22;21083;50.898;4.902;2023-05-20T14:23:27;25.20;99.90
20654;DHT22;21083;50.898;4.902;2023-05-20T14:25:53;25.20;99.90
20654;DHT22;21083;50.898;4.902;2023-05-20T14:28:20;25.30;99.90
20654;DHT22;21083;50.898;4.902;2023-05-20T14:30:49;25.30;99.90
20654;DHT22;21083;50.898;4.902;2023-05-20T14:33:16;25.30;99.90
20654;DHT22;21083;50.898;4.902;2023-05-20T14:35:43;25.30;99.90
20654;DHT22;21083;50.898;4.902;2023-05-20T14:38:10;25.10;99.90
20654;DHT22;21083;50.898;4.902;2023-05-20T14:40:37;24.90;99.90
20654;DHT22;21083;50.898;4.902;2023-05-20T14:43:04;24.70;99.90
20654;DHT22;21083;50.898;4.902;2023-05-20T14:45:31;24.70;99.90
20654;DHT22;21083;50.898;4.902;2023-05-20T14:47:59;24.60;99.90
20654;DHT22;21083;50.898;4.902;2023-05-20T14:50:26;24.40;99.90
20654;DHT22;21083;50.898;4.902;2023-05-20T14:52:53;24.20;99.90
20654;DHT22;21083;50.898;4.902;2023-05-20T14:55:20;24.00;99.90
20654;DHT22;21083;50.898;4.902;2023-05-20T14:57:47;24.10;99.90
20654;DHT22;21083;50.898;4.902;2023-05-20T15:00:15;24.20;99.90
20654;DHT22;21083;50.898;4.902;2023-05-20T15:02:42;24.30;99.90
20654;DHT22;21083;50.898;4.902;2023-05-20T15:05:10;24.30;99.90
20654;DHT22;21083;50.898;4.902;2023-05-20T15:07:37;24.20;99.90
20654;DHT22;21083;50.898;4.902;2023-05-20T15:10:05;23.90;99.90
20654;DHT22;21083;50.898;4.902;2023-05-20T15:12:32;24.00;99.90
20654;DHT22;21083;50.898;4.902;2023-05-20T15:14:59;23.80;99.90
20654;DHT22;21083;50.898;4.902;2023-05-20T15:17:26;23.80;99.90
20654;DHT22;21083;50.898;4.902;2023-05-20T15:19:53;23.80;99.90
20654;DHT22;21083;50.898;4.902;2023-05-20T15:22:21;23.60;99.90
20654;DHT22;21083;50.898;4.902;2023-05-20T15:24:48;23.50;99.90
20654;DHT22;21083;50.898;4.902;2023-05-20T15:27:15;23.50;99.90
20654;DHT22;21083;50.898;4.902;2023-05-20T15:29:42;23.80;99.90
20654;DHT22;21083;50.898;4.902;2023-05-20T15:32:09;24.30;99.90
20654;DHT22;21083;50.898;4.902;2023-05-20T15:34:36;24.70;99.90
20654;DHT22;21083;50.898;4.902;2023-05-20T15:37:03;24.80;99.90